CDT,Max TemperatureF,Mean TemperatureF,Min TemperatureF,Max Dew PointF,MeanDew PointF,Min DewpointF,Max Humidity, Mean Humidity, Min Humidity, Max Sea Level PressureIn, Mean Sea Level PressureIn, Min Sea Level PressureIn, Max VisibilityMiles, Mean VisibilityMiles, Min VisibilityMiles, Max Wind SpeedMPH, Mean Wind SpeedMPH, Max Gust SpeedMPH,PrecipitationIn, CloudCover, Events, WindDirDegrees
2014-4-1,31,24,16,25,16,9,87,72,58,30.10,30.05,29.99,10,10,1,31,14,40,0.00,3,Snow,340
2014-4-2,45,34,23,35,25,18,92,71,41,30.07,29.94,29.85,10,9,2,16,8,24,0.01,6,,78
2014-4-3,36,35,32,34,32,27,95,89,78,29.95,29.85,29.80,10,4,0,23,13,33,0.02,8,Fog-Snow,352
2014-4-4,46,38,31,26,22,18,76,59,32,30.11,30.04,29.95,10,10,10,26,18,33,0.00,5,,329
2014-4-5,64,47,30,29,26,23,84,48,22,30.04,29.91,29.81,10,10,10,32,12,40,0.00,2,,185
2014-4-6,65,50,35,39,33,27,84,52,26,29.89,29.83,29.75,10,10,10,15,7,18,0.00,1,Thunderstorm,261
2014-4-7,59,48,36,36,31,17,83,57,20,30.04,29.92,29.83,10,10,7,28,11,36,0.00,3,Rain,318
2014-4-8,58,44,30,32,25,16,86,52,19,30.15,30.06,29.98,10,10,10,14,9,20,0.00,1,,316
2014-4-9,83,62,41,32,23,12,58,30,7,29.98,29.77,29.61,10,10,7,26,10,36,0.02,0,,230
2014-4-10,65,52,41,36,25,12,72,36,13,30.00,29.93,29.73,10,10,10,21,11,31,0.00,2,,334
2014-4-11,75,58,42,39,30,13,81,40,10,30.00,29.90,29.67,10,10,10,18,9,25,0.00,0,,205
2014-4-12,75,62,50,41,34,25,62,36,16,29.74,29.65,29.60,10,10,10,22,14,29,0.00,0,,336
2014-4-13,49,41,31,36,28,19,92,71,52,30.13,29.92,29.76,10,8,0,30,23,45,0.08,6,Rain-Snow-Thunderstorm,358
2014-4-14,43,32,22,28,16,7,74,53,26,30.22,30.16,30.10,10,10,2,26,16,37,0.00,3,Snow,336
2014-4-15,59,37,15,29,19,11,82,50,26,30.17,29.92,29.61,10,10,10,28,9,34,0.00,1,,167
2014-4-16,51,41,31,32,26,23,80,58,35,30.19,29.79,29.52,10,10,10,33,18,40,0.00,6,,294
2014-4-17,52,37,23,23,20,15,85,52,25,30.32,30.24,30.17,10,10,10,16,9,21,0.00,4,,62
2014-4-18,70,53,36,40,33,22,74,46,27,30.18,30.01,29.86,10,10,10,32,15,40,0.00,0,,166
2014-4-19,67,60,52,44,38,30,69,45,31,30.03,29.97,29.86,10,10,7,28,15,36,0.00,0,,30
2014-4-20,79,60,42,50,38,29,66,42,25,30.01,29.95,29.87,10,10,10,15,7,17,0.00,1,Rain-Thunderstorm,112
2014-4-21,70,59,48,48,27,13,72,33,11,30.17,30.11,29.91,10,10,10,24,14,33,0.00,0,Rain,348
2014-4-22,71,54,38,32,27,23,70,39,18,30.16,30.01,29.83,10,10,10,24,9,33,0.00,2,,155
2014-4-23,80,66,53,49,37,28,57,38,20,29.83,29.63,29.49,10,10,10,36,19,46,0.00,2,Thunderstorm,165
2014-4-24,69,58,46,42,23,8,60,31,10,29.83,29.77,29.69,10,10,10,31,16,43,0.00,2,Rain,324
2014-4-25,75,58,42,32,23,12,67,28,9,29.83,29.80,29.75,10,10,10,13,5,,0.00,1,,122
2014-4-26,77,66,54,54,39,25,63,38,26,29.76,29.57,29.38,10,10,10,29,17,38,0.00,0,,118
2014-4-27,75,61,47,60,51,44,89,66,34,29.37,29.27,29.18,10,10,7,30,20,38,0.03,3,Rain-Thunderstorm,133
2014-4-28,50,44,39,48,43,36,93,88,84,29.59,29.34,29.21,10,8,0,28,15,36,1.05,8,Rain-Thunderstorm,322
2014-4-29,45,40,36,40,35,32,90,83,61,29.98,29.79,29.59,10,7,2,30,22,38,0.18,8,Rain-Snow,332
2014-4-30,48,42,36,35,31,22,79,64,38,30.03,30.00,29.98,10,10,10,34,20,44,0.00,6,Rain,325